sensor_id;sensor_type;location;lat;lon;timestamp;P1;durP1;ratioP1;P2;durP2;ratioP2
21448;SDS011;10885;52.830;13.788;2024-01-15T06:05:03;4.70;;;1.80;;
21448;SDS011;10885;52.830;13.788;2024-01-15T06:10:06;3.15;;;1.35;;
21448;SDS011;10885;52.830;13.788;2024-01-15T06:15:09;4.28;;;1.70;;
21448;SDS011;10885;52.830;13.788;2024-01-15T06:20:12;7.40;;;2.03;;
21448;SDS011;10885;52.830;13.788;2024-01-15T06:25:15;4.18;;;1.30;;
21448;SDS011;10885;52.830;13.788;2024-01-15T06:30:18;4.53;;;1.35;;
21448;SDS011;10885;52.830;13.788;2024-01-15T06:35:20;2.25;;;1.13;;
21448;SDS011;10885;52.830;13.788;2024-01-15T06:40:25;3.30;;;1.27;;
21448;SDS011;10885;52.830;13.788;2024-01-15T06:45:27;6.00;;;1.20;;
21448;SDS011;10885;52.830;13.788;2024-01-15T06:50:30;3.65;;;1.30;;
21448;SDS011;10885;52.830;13.788;2024-01-15T06:55:32;7.20;;;1.88;;
21448;SDS011;10885;52.830;13.788;2024-01-15T07:00:35;2.45;;;1.00;;
21448;SDS011;10885;52.830;13.788;2024-01-15T07:05:38;2.58;;;1.13;;
21448;SDS011;10885;52.830;13.788;2024-01-15T07:10:41;3.40;;;1.15;;
21448;SDS011;10885;52.830;13.788;2024-01-15T07:15:43;1.55;;;1.02;;
21448;SDS011;10885;52.830;13.788;2024-01-15T07:20:46;2.47;;;0.93;;
21448;SDS011;10885;52.830;13.788;2024-01-15T07:25:49;3.40;;;1.10;;
21448;SDS011;10885;52.830;13.788;2024-01-15T07:30:51;4.78;;;0.95;;
21448;SDS011;10885;52.830;13.788;2024-01-15T07:35:54;2.78;;;1.00;;
21448;SDS011;10885;52.830;13.788;2024-01-15T07:40:57;3.13;;;1.20;;
21448;SDS011;10885;52.830;13.788;2024-01-15T07:45:59;3.78;;;1.23;;
21448;SDS011;10885;52.830;13.788;2024-01-15T07:51:03;4.05;;;1.30;;
21448;SDS011;10885;52.830;13.788;2024-01-15T07:56:06;3.75;;;1.45;;
21448;SDS011;10885;52.830;13.788;2024-01-15T08:01:09;3.25;;;1.40;;
21448;SDS011;10885;52.830;13.788;2024-01-15T08:06:11;3.60;;;1.02;;
21448;SDS011;10885;52.830;13.788;2024-01-15T08:11:14;3.97;;;1.42;;
21448;SDS011;10885;52.830;13.788;2024-01-15T08:16:17;7.55;;;1.73;;
21448;SDS011;10885;52.830;13.788;2024-01-15T08:21:19;4.13;;;1.40;;
21448;SDS011;10885;52.830;13.788;2024-01-15T08:26:22;5.53;;;1.25;;
21448;SDS011;10885;52.830;13.788;2024-01-15T08:31:25;5.03;;;1.38;;
21448;SDS011;10885;52.830;13.788;2024-01-15T08:36:28;6.43;;;1.48;;
21448;SDS011;10885;52.830;13.788;2024-01-15T08:41:34;7.57;;;1.75;;
21448;SDS011;10885;52.830;13.788;2024-01-15T08:46:37;7.47;;;1.50;;
21448;SDS011;10885;52.830;13.788;2024-01-15T08:51:40;3.63;;;1.55;;
21448;SDS011;10885;52.830;13.788;2024-01-15T08:56:43;6.78;;;1.40;;
21448;SDS011;10885;52.830;13.788;2024-01-15T09:01:46;4.50;;;1.67;;
21448;SDS011;10885;52.830;13.788;2024-01-15T09:06:48;7.13;;;1.30;;
21448;SDS011;10885;52.830;13.788;2024-01-15T09:11:51;6.85;;;1.80;;
21448;SDS011;10885;52.830;13.788;2024-01-15T09:16:54;9.25;;;2.17;;
21448;SDS011;10885;52.830;13.788;2024-01-15T09:21:56;7.05;;;1.42;;
21448;SDS011;10885;52.830;13.788;2024-01-15T09:26:59;4.15;;;1.17;;
21448;SDS011;10885;52.830;13.788;2024-01-15T09:32:02;6.13;;;1.42;;
21448;SDS011;10885;52.830;13.788;2024-01-15T09:37:06;2.50;;;1.20;;
21448;SDS011;10885;52.830;13.788;2024-01-15T09:42:09;4.40;;;1.20;;
21448;SDS011;10885;52.830;13.788;2024-01-15T09:47:13;5.80;;;1.70;;
21448;SDS011;10885;52.830;13.788;2024-01-15T09:52:18;4.57;;;1.10;;
21448;SDS011;10885;52.830;13.788;2024-01-15T09:57:21;11.25;;;2.03;;
21448;SDS011;10885;52.830;13.788;2024-01-15T10:02:24;5.10;;;1.48;;
21448;SDS011;10885;52.830;13.788;2024-01-15T10:07:27;7.30;;;1.63;;
21448;SDS011;10885;52.830;13.788;2024-01-15T10:12:31;10.30;;;2.00;;
21448;SDS011;10885;52.830;13.788;2024-01-15T10:17:36;4.55;;;1.23;;
21448;SDS011;10885;52.830;13.788;2024-01-15T10:22:41;3.63;;;1.40;;
21448;SDS011;10885;52.830;13.788;2024-01-15T10:27:47;9.35;;;1.65;;
21448;SDS011;10885;52.830;13.788;2024-01-15T10:33:03;5.63;;;1.70;;
21448;SDS011;10885;52.830;13.788;2024-01-15T10:38:07;5.85;;;1.40;;
21448;SDS011;10885;52.830;13.788;2024-01-15T10:43:10;6.53;;;1.33;;
21448;SDS011;10885;52.830;13.788;2024-01-15T10:48:13;2.42;;;1.42;;
21448;SDS011;10885;52.830;13.788;2024-01-15T10:53:16;5.53;;;1.13;;
21448;SDS011;10885;52.830;13.788;2024-01-15T10:58:22;1.95;;;0.88;;
21448;SDS011;10885;52.830;13.788;2024-01-15T11:03:26;4.38;;;1.30;;
21448;SDS011;10885;52.830;13.788;2024-01-15T11:08:29;2.10;;;1.00;;
21448;SDS011;10885;52.830;13.788;2024-01-15T11:18:40;3.47;;;1.10;;
21448;SDS011;10885;52.830;13.788;2024-01-15T11:24:03;2.95;;;0.93;;
21448;SDS011;10885;52.830;13.788;2024-01-15T11:40:06;3.00;;;1.20;;
21448;SDS011;10885;52.830;13.788;2024-01-15T11:45:14;6.07;;;1.38;;
21448;SDS011;10885;52.830;13.788;2024-01-15T11:50:21;4.07;;;1.13;;
21448;SDS011;10885;52.830;13.788;2024-01-15T11:55:27;3.28;;;1.13;;
21448;SDS011;10885;52.830;13.788;2024-01-15T12:00:40;5.30;;;1.20;;
21448;SDS011;10885;52.830;13.788;2024-01-15T12:05:45;1.85;;;1.10;;
21448;SDS011;10885;52.830;13.788;2024-01-15T12:10:47;3.25;;;1.27;;
21448;SDS011;10885;52.830;13.788;2024-01-15T12:15:51;7.93;;;1.20;;
21448;SDS011;10885;52.830;13.788;2024-01-15T12:20:54;2.45;;;0.85;;
21448;SDS011;10885;52.830;13.788;2024-01-15T12:25:56;3.60;;;1.00;;
21448;SDS011;10885;52.830;13.788;2024-01-15T12:30:59;3.95;;;1.23;;
21448;SDS011;10885;52.830;13.788;2024-01-15T12:36:03;3.22;;;0.85;;
21448;SDS011;10885;52.830;13.788;2024-01-15T12:41:06;2.28;;;0.70;;
21448;SDS011;10885;52.830;13.788;2024-01-15T12:46:09;4.75;;;0.90;;
21448;SDS011;10885;52.830;13.788;2024-01-15T12:51:12;1.88;;;0.60;;
21448;SDS011;10885;52.830;13.788;2024-01-15T12:56:14;2.28;;;0.70;;
21448;SDS011;10885;52.830;13.788;2024-01-15T13:01:17;0.68;;;0.60;;
21448;SDS011;10885;52.830;13.788;2024-01-15T13:06:20;2.10;;;0.52;;
21448;SDS011;10885;52.830;13.788;2024-01-15T13:11:22;1.05;;;0.70;;
21448;SDS011;10885;52.830;13.788;2024-01-15T13:16:25;2.75;;;0.70;;
21448;SDS011;10885;52.830;13.788;2024-01-15T13:21:31;2.05;;;0.65;;
21448;SDS011;10885;52.830;13.788;2024-01-15T13:26:34;2.65;;;1.02;;
21448;SDS011;10885;52.830;13.788;2024-01-15T13:31:38;1.35;;;0.70;;
21448;SDS011;10885;52.830;13.788;2024-01-15T13:36:41;1.27;;;0.80;;
21448;SDS011;10885;52.830;13.788;2024-01-15T13:41:44;2.42;;;0.90;;
21448;SDS011;10885;52.830;13.788;2024-01-15T13:46:46;1.02;;;0.70;;
21448;SDS011;10885;52.830;13.788;2024-01-15T13:51:49;2.60;;;1.23;;
21448;SDS011;10885;52.830;13.788;2024-01-15T13:56:52;2.90;;;1.00;;
21448;SDS011;10885;52.830;13.788;2024-01-15T14:01:54;2.15;;;1.10;;
21448;SDS011;10885;52.830;13.788;2024-01-15T14:06:57;1.55;;;0.82;;
21448;SDS011;10885;52.830;13.788;2024-01-15T14:12:00;1.55;;;0.88;;
21448;SDS011;10885;52.830;13.788;2024-01-15T14:17:02;1.13;;;0.77;;
21448;SDS011;10885;52.830;13.788;2024-01-15T14:22:06;1.48;;;0.90;;
21448;SDS011;10885;52.830;13.788;2024-01-15T14:27:08;2.38;;;1.00;;
21448;SDS011;10885;52.830;13.788;2024-01-15T14:32:11;1.40;;;0.93;;
21448;SDS011;10885;52.830;13.788;2024-01-15T14:37:14;2.60;;;0.63;;
21448;SDS011;10885;52.830;13.788;2024-01-15T14:42:16;1.08;;;0.90;;
21448;SDS011;10885;52.830;13.788;2024-01-15T14:47:19;0.88;;;0.70;;
21448;SDS011;10885;52.830;13.788;2024-01-15T14:52:26;1.98;;;0.90;;
21448;SDS011;10885;52.830;13.788;2024-01-15T14:57:29;2.42;;;0.70;;
21448;SDS011;10885;52.830;13.788;2024-01-15T15:02:31;2.83;;;0.98;;
21448;SDS011;10885;52.830;13.788;2024-01-15T15:07:34;3.17;;;1.20;;
21448;SDS011;10885;52.830;13.788;2024-01-15T15:12:39;1.73;;;0.65;;
21448;SDS011;10885;52.830;13.788;2024-01-15T15:17:42;1.80;;;0.88;;
21448;SDS011;10885;52.830;13.788;2024-01-15T15:22:44;1.55;;;0.80;;
21448;SDS011;10885;52.830;13.788;2024-01-15T15:27:47;2.13;;;0.85;;
21448;SDS011;10885;52.830;13.788;2024-01-15T15:32:50;2.20;;;0.95;;
21448;SDS011;10885;52.830;13.788;2024-01-15T15:37:55;1.75;;;1.27;;
21448;SDS011;10885;52.830;13.788;2024-01-15T15:42:57;1.40;;;0.80;;
21448;SDS011;10885;52.830;13.788;2024-01-15T15:48:00;3.03;;;1.00;;
21448;SDS011;10885;52.830;13.788;2024-01-15T15:53:03;1.67;;;1.08;;
21448;SDS011;10885;52.830;13.788;2024-01-15T15:58:06;0.98;;;0.80;;
21448;SDS011;10885;52.830;13.788;2024-01-15T16:03:09;2.60;;;1.00;;
21448;SDS011;10885;52.830;13.788;2024-01-15T16:08:11;2.80;;;1.10;;
21448;SDS011;10885;52.830;13.788;2024-01-15T16:13:14;1.20;;;0.88;;
21448;SDS011;10885;52.830;13.788;2024-01-15T16:18:17;1.20;;;1.08;;
21448;SDS011;10885;52.830;13.788;2024-01-15T16:23:40;2.70;;;1.00;;
21448;SDS011;10885;52.830;13.788;2024-01-15T16:29:02;2.08;;;1.20;;
21448;SDS011;10885;52.830;13.788;2024-01-15T16:34:06;3.67;;;1.10;;
21448;SDS011;10885;52.830;13.788;2024-01-15T16:39:12;3.13;;;1.00;;
21448;SDS011;10885;52.830;13.788;2024-01-15T16:44:15;1.98;;;1.17;;
21448;SDS011;10885;52.830;13.788;2024-01-15T16:49:18;1.45;;;1.08;;
21448;SDS011;10885;52.830;13.788;2024-01-15T16:54:20;1.30;;;0.90;;
21448;SDS011;10885;52.830;13.788;2024-01-15T16:59:23;2.88;;;1.20;;
21448;SDS011;10885;52.830;13.788;2024-01-15T17:04:26;3.30;;;1.30;;
21448;SDS011;10885;52.830;13.788;2024-01-15T17:09:28;2.22;;;0.95;;
21448;SDS011;10885;52.830;13.788;2024-01-15T17:14:31;2.40;;;1.00;;
21448;SDS011;10885;52.830;13.788;2024-01-15T17:19:34;2.03;;;1.20;;
21448;SDS011;10885;52.830;13.788;2024-01-15T17:24:36;1.58;;;0.80;;
21448;SDS011;10885;52.830;13.788;2024-01-15T17:29:39;0.95;;;0.90;;
21448;SDS011;10885;52.830;13.788;2024-01-15T17:34:42;1.23;;;0.90;;
21448;SDS011;10885;52.830;13.788;2024-01-15T17:39:45;1.88;;;1.20;;
21448;SDS011;10885;52.830;13.788;2024-01-15T17:44:48;1.52;;;1.00;;
21448;SDS011;10885;52.830;13.788;2024-01-15T17:49:50;1.20;;;1.00;;
21448;SDS011;10885;52.830;13.788;2024-01-15T17:54:53;3.17;;;1.05;;
21448;SDS011;10885;52.830;13.788;2024-01-15T17:59:55;2.33;;;1.20;;
21448;SDS011;10885;52.830;13.788;2024-01-15T18:04:58;3.17;;;1.00;;
21448;SDS011;10885;52.830;13.788;2024-01-15T18:10:01;4.30;;;1.10;;
21448;SDS011;10885;52.830;13.788;2024-01-15T18:15:04;1.38;;;1.25;;
21448;SDS011;10885;52.830;13.788;2024-01-15T18:20:07;2.70;;;1.30;;
21448;SDS011;10885;52.830;13.788;2024-01-15T18:25:12;1.60;;;1.17;;
21448;SDS011;10885;52.830;13.788;2024-01-15T18:30:14;3.85;;;1.40;;
21448;SDS011;10885;52.830;13.788;2024-01-15T18:35:17;2.88;;;1.40;;
21448;SDS011;10885;52.830;13.788;2024-01-15T18:40:20;2.55;;;1.30;;
21448;SDS011;10885;52.830;13.788;2024-01-15T18:45:24;1.85;;;1.40;;
21448;SDS011;10885;52.830;13.788;2024-01-15T18:50:27;3.05;;;1.42;;
21448;SDS011;10885;52.830;13.788;2024-01-15T18:55:31;2.25;;;1.42;;
21448;SDS011;10885;52.830;13.788;2024-01-15T19:00:33;2.53;;;1.30;;
21448;SDS011;10885;52.830;13.788;2024-01-15T19:05:38;3.45;;;1.63;;
21448;SDS011;10885;52.830;13.788;2024-01-15T19:10:41;2.80;;;1.65;;
21448;SDS011;10885;52.830;13.788;2024-01-15T19:15:44;3.15;;;1.80;;
21448;SDS011;10885;52.830;13.788;2024-01-15T19:20:46;2.75;;;1.75;;
21448;SDS011;10885;52.830;13.788;2024-01-15T19:25:49;2.17;;;1.33;;
21448;SDS011;10885;52.830;13.788;2024-01-15T19:30:52;1.58;;;1.33;;
21448;SDS011;10885;52.830;13.788;2024-01-15T19:35:55;5.47;;;1.60;;
21448;SDS011;10885;52.830;13.788;2024-01-15T19:40:58;2.65;;;1.35;;
21448;SDS011;10885;52.830;13.788;2024-01-15T19:46:01;2.85;;;1.60;;
21448;SDS011;10885;52.830;13.788;2024-01-15T19:51:03;2.10;;;1.08;;
21448;SDS011;10885;52.830;13.788;2024-01-15T19:56:06;3.47;;;1.17;;
21448;SDS011;10885;52.830;13.788;2024-01-15T20:01:09;2.03;;;0.90;;
21448;SDS011;10885;52.830;13.788;2024-01-15T20:06:12;2.15;;;1.00;;
21448;SDS011;10885;52.830;13.788;2024-01-15T20:11:17;1.25;;;0.95;;
21448;SDS011;10885;52.830;13.788;2024-01-15T20:16:20;1.52;;;0.93;;
21448;SDS011;10885;52.830;13.788;2024-01-15T20:21:23;0.82;;;0.82;;
21448;SDS011;10885;52.830;13.788;2024-01-15T20:26:26;1.20;;;0.80;;
21448;SDS011;10885;52.830;13.788;2024-01-15T20:31:29;1.20;;;1.00;;
21448;SDS011;10885;52.830;13.788;2024-01-15T20:36:31;1.42;;;0.98;;
21448;SDS011;10885;52.830;13.788;2024-01-15T20:41:34;0.75;;;0.75;;
21448;SDS011;10885;52.830;13.788;2024-01-15T20:46:38;1.38;;;1.02;;
21448;SDS011;10885;52.830;13.788;2024-01-15T20:51:41;2.30;;;1.10;;
21448;SDS011;10885;52.830;13.788;2024-01-15T20:56:44;1.95;;;1.10;;
21448;SDS011;10885;52.830;13.788;2024-01-15T21:01:47;2.15;;;1.20;;
21448;SDS011;10885;52.830;13.788;2024-01-15T21:06:49;1.45;;;1.10;;
21448;SDS011;10885;52.830;13.788;2024-01-15T21:11:53;2.65;;;1.00;;
21448;SDS011;10885;52.830;13.788;2024-01-15T21:16:56;3.25;;;1.02;;
21448;SDS011;10885;52.830;13.788;2024-01-15T21:21:59;2.55;;;1.00;;
21448;SDS011;10885;52.830;13.788;2024-01-15T21:27:02;1.92;;;0.95;;
21448;SDS011;10885;52.830;13.788;2024-01-15T21:32:06;3.25;;;1.02;;
21448;SDS011;10885;52.830;13.788;2024-01-15T21:37:09;0.98;;;0.90;;
